createdAt,value
2018-07-19T00:01:31.841Z,9.07
2018-07-19T00:04:01.217Z,9.10
2018-07-19T00:06:30.655Z,8.17
2018-07-19T00:09:00.167Z,8.77
2018-07-19T00:11:29.606Z,8.37
2018-07-19T00:13:59.076Z,8.10
2018-07-19T00:16:28.552Z,8.33
2018-07-19T00:18:58.007Z,8.13
2018-07-19T00:21:27.413Z,8.03
2018-07-19T00:23:56.840Z,8.10
2018-07-19T00:26:26.259Z,8.20
2018-07-19T00:28:55.712Z,8.40
2018-07-19T00:31:25.179Z,8.73
2018-07-19T00:33:54.662Z,8.53
2018-07-19T00:36:24.060Z,8.93
2018-07-19T00:38:53.458Z,9.13
2018-07-19T00:41:22.862Z,9.40
2018-07-19T00:43:52.364Z,9.67
2018-07-19T00:46:21.797Z,9.60
2018-07-19T00:48:51.387Z,10.10
2018-07-19T00:51:20.858Z,10.10
2018-07-19T00:53:50.316Z,11.20
2018-07-19T00:56:19.693Z,11.47
2018-07-19T00:58:49.159Z,11.47
2018-07-19T01:01:18.581Z,12.60
2018-07-19T01:03:48.002Z,11.90
2018-07-19T01:06:17.477Z,12.90
2018-07-19T01:08:46.951Z,12.93
2018-07-19T01:11:16.416Z,14.20
2018-07-19T01:13:45.906Z,14.17
2018-07-19T01:16:15.322Z,14.50
2018-07-19T01:18:44.744Z,15.87
2018-07-19T01:21:14.260Z,16.53
2018-07-19T01:23:43.654Z,16.30
2018-07-19T01:26:13.068Z,16.50
2018-07-19T01:28:42.575Z,17.23
2018-07-19T01:31:12.156Z,17.50
2018-07-19T01:33:41.577Z,18.00
2018-07-19T01:36:10.999Z,18.63
2018-07-19T01:38:40.435Z,17.97
2018-07-19T01:41:20.616Z,17.53
2018-07-19T01:43:49.501Z,17.33
2018-07-19T01:46:18.897Z,17.30
2018-07-19T01:48:48.349Z,17.37
2018-07-19T01:51:17.730Z,18.00
2018-07-19T01:53:47.299Z,17.83
2018-07-19T01:56:16.747Z,18.63
2018-07-19T01:58:46.148Z,17.47
2018-07-19T02:01:15.593Z,17.93
2018-07-19T02:03:45.028Z,19.07
2018-07-19T02:06:14.449Z,19.03
2018-07-19T02:08:43.913Z,18.23
2018-07-19T02:11:12.803Z,18.00
2018-07-19T02:13:42.216Z,18.60
2018-07-19T02:16:11.659Z,18.30
2018-07-19T02:18:41.205Z,17.87
2018-07-19T02:21:10.666Z,16.83
2018-07-19T02:23:40.133Z,17.33
2018-07-19T02:26:09.573Z,16.73
2018-07-19T02:28:39.079Z,17.00
2018-07-19T02:31:08.531Z,15.97
2018-07-19T02:33:37.971Z,15.93
2018-07-19T02:36:07.493Z,17.07
2018-07-19T02:38:36.854Z,15.47
2018-07-19T02:41:06.330Z,14.97
2018-07-19T02:43:35.866Z,15.17
2018-07-19T02:46:05.352Z,14.83
2018-07-19T02:48:34.733Z,14.27
2018-07-19T02:51:04.184Z,13.33
2018-07-19T02:53:33.598Z,12.30
2018-07-19T02:56:03.263Z,12.93
2018-07-19T02:58:32.905Z,12.37
2018-07-19T03:01:02.380Z,15.93
2018-07-19T03:03:31.821Z,14.03
2018-07-19T03:06:01.237Z,14.43
2018-07-19T03:08:30.721Z,16.30
2018-07-19T03:11:00.279Z,15.83
2018-07-19T03:13:29.779Z,14.63
2018-07-19T03:15:59.321Z,13.93
2018-07-19T03:18:28.764Z,13.87
2018-07-19T03:20:58.215Z,14.63
2018-07-19T03:23:27.814Z,14.57
2018-07-19T03:25:57.243Z,13.77
2018-07-19T03:28:26.704Z,13.33
2018-07-19T03:30:56.225Z,14.73
2018-07-19T03:33:25.630Z,14.50
2018-07-19T03:35:55.053Z,14.97
2018-07-19T03:38:28.861Z,14.23
2018-07-19T03:40:59.816Z,12.57
2018-07-19T03:43:31.582Z,11.70
2018-07-19T03:46:01.188Z,11.60
2018-07-19T03:48:30.611Z,11.90
2018-07-19T03:51:00.144Z,11.70
2018-07-19T03:53:29.641Z,12.30
2018-07-19T03:55:59.193Z,9.10
2018-07-19T03:58:28.697Z,10.30
2018-07-19T04:00:58.429Z,12.17
2018-07-19T04:03:28.328Z,8.70
2018-07-19T04:05:57.861Z,9.27
2018-07-19T04:08:27.289Z,8.70
2018-07-19T04:10:56.718Z,7.70
2018-07-19T04:13:26.071Z,7.90
2018-07-19T04:15:55.551Z,7.40
2018-07-19T04:18:25.042Z,7.67
2018-07-19T04:20:54.474Z,7.90
2018-07-19T04:23:23.871Z,7.13
2018-07-19T04:25:53.250Z,7.53
2018-07-19T04:28:22.694Z,7.40
2018-07-19T04:30:52.124Z,7.83
2018-07-19T04:33:21.586Z,6.57
2018-07-19T04:35:50.952Z,7.07
2018-07-19T04:38:20.432Z,6.90
2018-07-19T04:40:49.799Z,6.97
2018-07-19T04:43:19.217Z,6.87
2018-07-19T04:45:48.601Z,7.10
2018-07-19T04:48:17.523Z,7.27
2018-07-19T04:50:46.456Z,7.70
2018-07-19T04:53:15.953Z,7.83
2018-07-19T04:55:45.398Z,6.97
2018-07-19T04:58:14.819Z,6.60
2018-07-19T05:00:44.242Z,6.87
2018-07-19T05:03:13.656Z,6.47
2018-07-19T05:05:43.055Z,6.40
2018-07-19T05:08:12.485Z,6.70
2018-07-19T05:10:41.922Z,6.67
2018-07-19T05:13:11.362Z,6.47
2018-07-19T05:15:40.749Z,7.00
2018-07-19T05:18:10.183Z,6.77
2018-07-19T05:20:39.600Z,7.20
2018-07-19T05:23:09.139Z,7.50
2018-07-19T05:25:38.468Z,7.27
2018-07-19T05:28:07.869Z,7.53
2018-07-19T05:30:37.312Z,8.30
2018-07-19T05:33:06.820Z,8.03
2018-07-19T05:35:36.315Z,7.83
2018-07-19T05:38:05.816Z,7.63
2018-07-19T05:40:35.293Z,7.43
2018-07-19T05:43:04.781Z,7.57
2018-07-19T05:45:34.236Z,8.03
2018-07-19T05:48:05.165Z,8.30
2018-07-19T05:50:34.574Z,8.30
2018-07-19T05:53:03.974Z,8.63
2018-07-19T05:55:33.477Z,10.53
2018-07-19T05:58:02.935Z,9.60
2018-07-19T06:00:32.352Z,10.30
2018-07-19T06:03:01.880Z,13.00
2018-07-19T06:05:31.459Z,12.63
2018-07-19T06:08:00.883Z,11.73
2018-07-19T06:10:30.315Z,12.40
2018-07-19T06:12:59.902Z,13.37
2018-07-19T06:15:29.368Z,11.13
2018-07-19T06:17:58.764Z,11.00
2018-07-19T06:20:28.222Z,9.97
2018-07-19T06:22:57.731Z,11.03
2018-07-19T06:25:27.247Z,10.47
2018-07-19T06:27:56.675Z,10.87
2018-07-19T06:30:26.105Z,9.80
2018-07-19T06:32:55.697Z,11.07
2018-07-19T06:35:25.220Z,10.53
2018-07-19T06:37:54.711Z,10.90
2018-07-19T06:40:24.365Z,10.30
2018-07-19T06:42:54.081Z,10.70
2018-07-19T06:45:23.761Z,9.87
2018-07-19T06:47:53.262Z,11.17
2018-07-19T06:50:22.744Z,10.10
2018-07-19T06:52:52.344Z,9.53
2018-07-19T06:56:21.493Z,9.37
2018-07-19T06:58:51.028Z,10.20
2018-07-19T07:01:20.485Z,9.90
2018-07-19T07:03:50.003Z,9.70
2018-07-19T07:06:18.984Z,8.80
2018-07-19T07:08:48.537Z,8.83
2018-07-19T07:11:17.989Z,8.53
2018-07-19T07:13:48.154Z,8.50
2018-07-19T07:16:17.571Z,8.77
2018-07-19T07:18:47.000Z,8.43
2018-07-19T07:21:16.515Z,9.43
2018-07-19T07:23:46.396Z,9.70
2018-07-19T07:26:15.888Z,9.23
2018-07-19T07:28:45.334Z,9.13
2018-07-19T07:31:14.790Z,8.17
2018-07-19T07:33:44.649Z,8.30
2018-07-19T07:36:14.073Z,8.73
2018-07-19T07:38:43.005Z,8.27
2018-07-19T07:41:12.552Z,9.97
2018-07-19T07:43:42.063Z,9.37
2018-07-19T07:46:11.454Z,9.70
2018-07-19T07:48:40.920Z,9.00
2018-07-19T07:51:10.460Z,10.07
2018-07-19T07:53:40.037Z,9.60
2018-07-19T07:56:09.471Z,9.63
2018-07-19T07:58:38.861Z,9.27
2018-07-19T08:01:08.431Z,9.17
2018-07-19T08:03:37.889Z,10.07
2018-07-19T08:06:07.639Z,10.17
2018-07-19T08:08:37.046Z,9.93
2018-07-19T08:11:06.547Z,8.67
2018-07-19T08:13:36.010Z,10.03
2018-07-19T08:16:05.417Z,10.03
2018-07-19T08:18:34.838Z,8.83
2018-07-19T08:21:04.321Z,10.23
2018-07-19T08:23:33.927Z,9.07
2018-07-19T08:26:03.420Z,9.27
2018-07-19T08:28:32.877Z,9.70
2018-07-19T08:31:02.465Z,8.53
2018-07-19T08:33:31.896Z,8.97
2018-07-19T08:36:01.461Z,9.03
2018-07-19T08:38:30.816Z,8.50
2018-07-19T08:41:00.238Z,9.20
2018-07-19T08:43:29.705Z,8.57
2018-07-19T08:45:59.359Z,8.57
2018-07-19T08:48:28.893Z,8.67
2018-07-19T08:50:58.413Z,8.80
2018-07-19T08:53:27.828Z,8.33
2018-07-19T08:55:57.322Z,8.70
2018-07-19T08:58:27.032Z,7.97
2018-07-19T09:00:56.461Z,8.10
2018-07-19T09:03:25.863Z,7.87
2018-07-19T09:05:55.258Z,8.40
2018-07-19T09:08:24.768Z,8.03
2018-07-19T09:10:54.177Z,8.85
2018-07-19T09:13:23.651Z,8.80
2018-07-19T09:15:53.101Z,9.55
2018-07-19T09:18:22.586Z,8.23
2018-07-19T09:20:52.041Z,8.50
2018-07-19T09:23:21.497Z,9.83
2018-07-19T09:25:50.929Z,8.80
2018-07-19T09:28:20.369Z,8.18
2018-07-19T09:30:49.788Z,6.85
2018-07-19T09:33:19.412Z,7.20
2018-07-19T09:35:48.896Z,8.53
2018-07-19T09:38:18.246Z,8.20
2018-07-19T09:40:47.669Z,7.20
2018-07-19T09:43:17.255Z,6.92
2018-07-19T09:45:46.631Z,6.53
2018-07-19T09:48:16.022Z,6.75
2018-07-19T09:50:46.684Z,6.45
2018-07-19T09:53:16.092Z,6.20
2018-07-19T09:55:45.528Z,6.12
2018-07-19T09:58:14.993Z,5.90
2018-07-19T10:00:49.542Z,5.90
2018-07-19T10:03:18.942Z,5.72
2018-07-19T10:05:48.464Z,6.75
2018-07-19T10:08:17.840Z,6.55
2018-07-19T10:10:47.395Z,5.22
2018-07-19T10:13:16.845Z,6.17
2018-07-19T10:15:46.284Z,6.55
2018-07-19T10:18:15.792Z,5.95
2018-07-19T10:20:45.217Z,6.17
2018-07-19T10:23:14.633Z,5.78
2018-07-19T10:25:44.150Z,5.30
2018-07-19T10:28:13.693Z,5.42
2018-07-19T10:30:43.121Z,5.78
2018-07-19T10:33:12.559Z,5.60
2018-07-19T10:35:42.056Z,5.75
2018-07-19T10:38:10.936Z,5.37
2018-07-19T10:40:40.424Z,5.90
2018-07-19T10:43:10.062Z,5.95
2018-07-19T10:45:39.424Z,5.87
2018-07-19T10:48:09.069Z,5.95
2018-07-19T10:50:38.486Z,5.92
2018-07-19T10:53:07.941Z,5.80
2018-07-19T10:55:37.424Z,5.22
2018-07-19T10:58:06.943Z,5.30
2018-07-19T11:00:36.340Z,5.33
2018-07-19T11:03:06.128Z,5.67
2018-07-19T11:05:35.594Z,4.95
2018-07-19T11:08:05.229Z,5.45
2018-07-19T11:10:34.639Z,5.67
2018-07-19T11:13:04.061Z,6.05
2018-07-19T11:15:33.511Z,5.45
2018-07-19T11:18:02.871Z,6.15
2018-07-19T11:20:32.319Z,5.95
2018-07-19T11:23:01.840Z,5.70
2018-07-19T11:25:31.260Z,5.95
2018-07-19T11:28:00.775Z,5.83
2018-07-19T11:30:30.182Z,5.97
2018-07-19T11:32:59.741Z,5.28
2018-07-19T11:35:29.165Z,5.83
2018-07-19T11:37:58.633Z,5.50
2018-07-19T11:40:28.619Z,5.75
2018-07-19T11:42:58.057Z,5.50
2018-07-19T11:45:27.453Z,6.20
2018-07-19T11:47:56.881Z,5.95
2018-07-19T11:50:26.305Z,6.17
2018-07-19T11:52:55.709Z,6.00
2018-07-19T11:55:25.226Z,5.28
2018-07-19T11:57:54.701Z,5.40
2018-07-19T12:00:24.210Z,5.30
2018-07-19T12:02:53.621Z,5.30
2018-07-19T12:05:23.094Z,5.17
2018-07-19T12:07:53.506Z,5.03
2018-07-19T12:10:23.559Z,5.28
2018-07-19T12:12:53.377Z,5.65
2018-07-19T12:15:22.749Z,4.90
2018-07-19T12:17:55.241Z,5.20
2018-07-19T12:20:24.742Z,5.40
2018-07-19T12:22:54.160Z,5.42
2018-07-19T12:25:26.445Z,5.55
2018-07-19T12:27:55.829Z,5.00
2018-07-19T12:30:25.181Z,5.40
2018-07-19T12:32:54.617Z,5.22
2018-07-19T12:35:24.384Z,5.97
2018-07-19T12:37:53.914Z,5.40
2018-07-19T12:40:23.375Z,5.28
2018-07-19T12:42:52.952Z,5.05
2018-07-19T12:45:22.337Z,5.03
2018-07-19T12:47:51.760Z,5.25
2018-07-19T12:50:21.106Z,5.22
2018-07-19T12:52:50.569Z,5.25
2018-07-19T12:55:20.125Z,5.67
2018-07-19T12:57:55.771Z,6.15
2018-07-19T13:00:25.277Z,5.58
2018-07-19T13:02:54.670Z,5.33
2018-07-19T13:05:24.524Z,5.90
2018-07-19T13:07:53.995Z,5.22
2018-07-19T13:10:23.353Z,5.45
2018-07-19T13:12:53.285Z,6.30
2018-07-19T13:15:23.043Z,5.80
2018-07-19T13:17:52.447Z,5.80
2018-07-19T13:20:21.940Z,6.45
2018-07-19T13:22:51.500Z,6.35
2018-07-19T13:25:26.576Z,6.28
2018-07-19T13:27:55.936Z,6.37
2018-07-19T13:30:25.387Z,6.87
2018-07-19T13:32:54.779Z,6.35
2018-07-19T13:35:24.210Z,6.55
2018-07-19T13:37:54.944Z,6.28
2018-07-19T13:40:24.361Z,6.97
2018-07-19T13:42:54.186Z,6.85
2018-07-19T13:45:24.090Z,6.78
2018-07-19T13:47:53.528Z,6.58
2018-07-19T13:50:22.937Z,6.65
2018-07-19T13:53:03.326Z,6.75
2018-07-19T13:55:33.716Z,6.95
2018-07-19T13:58:03.116Z,6.37
2018-07-19T14:00:32.546Z,5.90
2018-07-19T14:03:02.169Z,6.12
2018-07-19T14:05:31.523Z,6.25
2018-07-19T14:08:01.088Z,6.58
2018-07-19T14:10:30.477Z,6.85
2018-07-19T14:12:59.964Z,7.03
2018-07-19T14:15:29.264Z,6.37
2018-07-19T14:17:58.629Z,6.60
2018-07-19T14:20:27.984Z,6.87
2018-07-19T14:22:57.416Z,7.58
2018-07-19T14:25:26.838Z,7.42
2018-07-19T14:27:56.252Z,7.17
2018-07-19T14:30:25.577Z,6.87
2018-07-19T14:32:54.974Z,7.20
2018-07-19T14:35:24.357Z,8.20
2018-07-19T14:37:54.225Z,8.30
2018-07-19T14:40:23.718Z,7.60
2018-07-19T14:42:53.111Z,8.35
2018-07-19T14:45:22.524Z,7.10
2018-07-19T14:47:52.042Z,7.40
2018-07-19T14:50:21.547Z,7.08
2018-07-19T14:52:50.902Z,7.42
2018-07-19T14:55:20.253Z,7.35
2018-07-19T14:57:49.665Z,7.28
2018-07-19T15:00:19.096Z,8.63
2018-07-19T15:02:48.527Z,7.03
2018-07-19T15:05:17.869Z,7.62
2018-07-19T15:07:47.242Z,7.92
2018-07-19T15:10:16.618Z,7.55
2018-07-19T15:12:46.137Z,7.72
2018-07-19T15:15:15.558Z,8.13
2018-07-19T15:17:44.912Z,8.35
2018-07-19T15:20:14.286Z,6.22
2018-07-19T15:22:43.664Z,6.17
2018-07-19T15:25:13.023Z,6.35
2018-07-19T15:27:42.506Z,5.58
2018-07-19T15:30:11.945Z,6.60
2018-07-19T15:32:41.355Z,5.83
2018-07-19T15:35:10.683Z,6.28
2018-07-19T15:37:40.060Z,5.87
2018-07-19T15:40:09.550Z,6.42
2018-07-19T15:42:38.933Z,10.43
2018-07-19T15:45:08.327Z,6.65
2018-07-19T15:47:37.763Z,6.33
2018-07-19T15:50:07.194Z,5.28
2018-07-19T15:52:36.549Z,5.50
2018-07-19T15:55:05.939Z,5.60
2018-07-19T15:57:35.469Z,6.17
2018-07-19T16:00:05.145Z,5.45
2018-07-19T16:02:34.602Z,5.72
2018-07-19T16:05:04.086Z,5.30
2018-07-19T16:07:33.472Z,4.35
2018-07-19T16:10:03.169Z,5.90
2018-07-19T16:12:32.714Z,6.10
2018-07-19T16:15:02.332Z,6.15
2018-07-19T16:17:31.718Z,8.88
2018-07-19T16:20:01.297Z,6.28
2018-07-19T16:22:30.675Z,7.37
2018-07-19T16:25:00.035Z,6.75
2018-07-19T16:27:29.618Z,5.12
2018-07-19T16:29:59.071Z,4.83
2018-07-19T16:32:28.449Z,5.83
2018-07-19T16:34:57.922Z,5.42
2018-07-19T16:37:27.294Z,6.03
2018-07-19T16:39:56.648Z,5.10
2018-07-19T16:42:26.026Z,7.00
2018-07-19T16:44:55.418Z,7.10
2018-07-19T16:47:24.818Z,5.55
2018-07-19T16:49:54.274Z,4.95
2018-07-19T16:52:23.637Z,5.72
2018-07-19T16:54:53.012Z,5.50
2018-07-19T16:57:22.345Z,6.20
2018-07-19T16:59:51.753Z,6.33
2018-07-19T17:02:21.176Z,9.75
2018-07-19T17:04:50.597Z,6.75
2018-07-19T17:07:20.053Z,6.65
2018-07-19T17:09:49.499Z,6.45
2018-07-19T17:12:18.822Z,6.15
2018-07-19T17:14:48.269Z,6.40
2018-07-19T17:17:17.665Z,6.35
2018-07-19T17:19:47.110Z,6.80
2018-07-19T17:22:16.570Z,6.28
2018-07-19T17:24:46.009Z,6.28
2018-07-19T17:27:15.557Z,6.33
2018-07-19T17:29:44.962Z,6.28
2018-07-19T17:32:14.395Z,6.35
2018-07-19T17:34:43.840Z,6.30
2018-07-19T17:37:13.307Z,6.62
2018-07-19T17:39:42.792Z,6.00
2018-07-19T17:42:12.239Z,6.37
2018-07-19T17:44:41.638Z,6.53
2018-07-19T17:47:11.134Z,8.50
2018-07-19T17:49:40.637Z,7.37
2018-07-19T17:52:10.113Z,8.93
2018-07-19T17:54:39.551Z,9.25
2018-07-19T17:57:09.094Z,8.88
2018-07-19T17:59:38.580Z,9.38
2018-07-19T18:02:08.146Z,7.30
2018-07-19T18:04:37.603Z,8.33
2018-07-19T18:07:07.033Z,8.53
2018-07-19T18:09:36.479Z,9.50
2018-07-19T18:12:06.008Z,11.05
2018-07-19T18:14:35.680Z,10.98
2018-07-19T18:17:05.401Z,9.50
2018-07-19T18:19:35.241Z,8.85
2018-07-19T18:22:04.657Z,17.35
2018-07-19T18:24:34.163Z,15.83
2018-07-19T18:27:03.369Z,16.60
2018-07-19T18:29:32.730Z,11.85
2018-07-19T18:32:02.113Z,10.70
2018-07-19T18:34:31.636Z,13.45
2018-07-19T18:37:01.154Z,10.70
2018-07-19T18:39:30.657Z,11.28
2018-07-19T18:42:00.232Z,11.30
2018-07-19T18:44:29.846Z,11.78
2018-07-19T18:46:59.678Z,9.63
2018-07-19T18:49:31.433Z,10.88
2018-07-19T18:52:01.657Z,10.50
2018-07-19T18:54:31.665Z,11.68
2018-07-19T18:57:03.720Z,12.00
2018-07-19T18:59:35.081Z,13.13
2018-07-19T19:02:05.369Z,15.75
2018-07-19T19:04:35.741Z,12.33
2018-07-19T19:07:05.852Z,16.93
2018-07-19T19:09:36.176Z,14.75
2018-07-19T19:12:06.293Z,13.53
2018-07-19T19:14:36.522Z,13.58
2018-07-19T19:17:06.615Z,14.10
2018-07-19T19:19:36.592Z,18.00
2018-07-19T19:22:06.977Z,14.15
2018-07-19T19:24:37.789Z,13.15
2018-07-19T19:27:07.835Z,14.18
2018-07-19T19:29:38.407Z,15.35
2018-07-19T19:32:08.999Z,15.83
2018-07-19T19:34:39.898Z,17.77
2018-07-19T19:37:14.064Z,14.93
2018-07-19T19:39:44.479Z,15.93
2018-07-19T19:42:15.055Z,14.83
2018-07-19T19:44:45.609Z,12.13
2018-07-19T19:47:15.891Z,12.07
2018-07-19T19:49:46.252Z,10.30
2018-07-19T19:52:16.349Z,15.40
2018-07-19T19:54:46.420Z,11.27
2018-07-19T19:57:16.737Z,10.30
2018-07-19T19:59:46.760Z,10.87
2018-07-19T20:02:16.926Z,11.77
2018-07-19T20:04:46.980Z,10.17
2018-07-19T20:07:17.063Z,10.83
2018-07-19T20:09:47.103Z,10.37
2018-07-19T20:12:17.168Z,11.13
2018-07-19T20:14:47.739Z,11.00
2018-07-19T20:17:17.886Z,11.40
2018-07-19T20:19:47.692Z,10.70
2018-07-19T20:22:17.346Z,10.87
2018-07-19T20:24:46.796Z,10.80
2018-07-19T20:27:16.474Z,9.97
2018-07-19T20:29:46.324Z,10.70
2018-07-19T20:32:16.082Z,10.90
2018-07-19T20:34:45.724Z,11.20
2018-07-19T20:37:15.645Z,11.97
2018-07-19T20:39:45.433Z,10.97
2018-07-19T20:42:14.879Z,11.53
2018-07-19T20:44:44.346Z,12.83
2018-07-19T20:47:13.830Z,12.33
2018-07-19T20:49:43.396Z,12.23
2018-07-19T20:52:12.851Z,12.20
2018-07-19T20:54:41.972Z,12.50
2018-07-19T20:57:11.488Z,12.27
2018-07-19T20:59:40.352Z,11.77
2018-07-19T21:02:09.755Z,12.03
2018-07-19T21:04:39.173Z,11.57
2018-07-19T21:07:08.551Z,11.70
2018-07-19T21:09:37.956Z,11.70
2018-07-19T21:12:07.343Z,11.57
2018-07-19T21:14:36.717Z,13.57
2018-07-19T21:17:06.238Z,12.87
2018-07-19T21:19:35.662Z,13.50
2018-07-19T21:22:05.134Z,14.73
2018-07-19T21:24:34.554Z,14.03
2018-07-19T21:27:03.992Z,13.50
2018-07-19T21:29:33.333Z,14.70
2018-07-19T21:32:02.847Z,14.27
2018-07-19T21:34:32.297Z,13.43
2018-07-19T21:37:01.825Z,12.53
2018-07-19T21:39:31.204Z,11.67
2018-07-19T21:42:00.597Z,12.87
2018-07-19T21:44:29.995Z,12.63
2018-07-19T21:46:59.556Z,12.37
2018-07-19T21:49:28.967Z,12.90
2018-07-19T21:51:58.356Z,12.60
2018-07-19T21:54:27.764Z,13.03
2018-07-19T21:56:57.223Z,12.63
2018-07-19T21:59:26.540Z,12.50
2018-07-19T22:01:55.949Z,13.60
2018-07-19T22:04:25.363Z,13.63
2018-07-19T22:06:54.848Z,13.43
2018-07-19T22:09:24.321Z,13.30
2018-07-19T22:11:53.889Z,13.70
2018-07-19T22:14:23.390Z,13.50
2018-07-19T22:16:52.804Z,13.13
2018-07-19T22:19:22.228Z,15.27
2018-07-19T22:21:51.661Z,15.50
2018-07-19T22:24:21.078Z,15.50
2018-07-19T22:26:50.458Z,14.23
2018-07-19T22:29:19.857Z,14.50
2018-07-19T22:31:49.289Z,14.83
2018-07-19T22:34:18.670Z,13.83
2018-07-19T22:36:48.046Z,14.90
2018-07-19T22:39:17.493Z,13.97
2018-07-19T22:41:46.961Z,15.00
2018-07-19T22:44:16.421Z,14.57
2018-07-19T22:46:45.853Z,13.37
2018-07-19T22:49:15.282Z,12.70
2018-07-19T22:51:44.666Z,14.20
2018-07-19T22:54:14.237Z,14.50
2018-07-19T22:56:43.587Z,15.77
2018-07-19T22:59:13.041Z,16.10
2018-07-19T23:01:42.449Z,15.33
2018-07-19T23:04:11.835Z,17.07
2018-07-19T23:06:41.238Z,17.50
2018-07-19T23:09:10.668Z,18.10
2018-07-19T23:11:40.078Z,18.23
2018-07-19T23:14:09.492Z,17.90
2018-07-19T23:16:38.920Z,18.37
2018-07-19T23:19:08.335Z,17.07
2018-07-19T23:21:37.801Z,17.00
2018-07-19T23:24:06.676Z,16.77
2018-07-19T23:26:36.164Z,16.67
2018-07-19T23:29:05.814Z,16.23
2018-07-19T23:31:35.453Z,16.03
2018-07-19T23:34:04.921Z,16.00
2018-07-19T23:36:38.357Z,16.03
2018-07-19T23:39:17.052Z,15.60
2018-07-19T23:42:49.477Z,15.10
2018-07-19T23:45:23.780Z,14.83
2018-07-19T23:47:53.885Z,15.57
2018-07-19T23:50:23.252Z,15.53
2018-07-19T23:52:52.640Z,15.73
2018-07-19T23:55:22.038Z,16.33
2018-07-19T23:57:51.356Z,18.17
